FRIANT DAM (MILLERTON) (MIL)

Elevation: 581' · SAN JOAQUIN R basin · Operator: US Bureau of Reclamation


Station comments:

11/19/2014Hourly storage has resumed as of 11/19/2014. It had previously stopped at 2/26/1998.


Provisional data, subject to change.
Query executed Wednesday at 15:55:24   clock

Select a sensor type for a plot of data.
Note: Reservoir Flows are daily averages.

Earlier

Date RES ELE    STORAGE    RES CHG    TOC STO    ABV TOC    OUTFLOW    INFLOW    EVAP    FNF    RIV REL    PPT INC    SPILL   
 FEET   AF   AF   AF   AF   CFS   CFS   CFS   CFS   CFS   INCHES   CFS  
12/30/2014 487.41 180569 -421 435500 -254931 291 85 6 110 152 0.00 0
12/31/2014 487.29 180253 -316 435500 r -255247 r 209 52 2 120 166 0.00 0
01/01/2015 487.23 180095 -158 435500 -255405 173 95 2 113 173 0.00 0
01/02/2015 487.22 180069 -26 435500 -255431 173 162 2 193 173 0.00 0
01/03/2015 487.25 180148 79 435500 -255352 173 217 4 196 173 0.00 0
01/04/2015 487.28 180227 79 435500 -255273 173 220 7 182 173 0.00 0
01/05/2015 487.32 180332 105 435500 -255168 r 173 230 4 206 173 0.00 0
01/06/2015 487.35 180411 79 435500 -255089 173 216 3 204 173 0.00 0
01/07/2015 487.40 180542 131 435500 -- 173 242 3 240 173 0.00 0
01/08/2015 487.46 180700 158 435500 -254800 163 251 8 271 163 0.00 0
01/09/2015 487.51 180832 132 435500 -254668 158 232 7 263 158 0.00 0
01/10/2015 487.57 180990 158 435500 -254510 158 240 2 249 158 0.00 0
01/11/2015 487.63 181148 158 435500 -254352 158 242 4 281 158 0.00 0
01/12/2015 487.69 181305 157 435500 -254195 158 240 3 262 158 0.00 0
01/13/2015 487.79 181568 263 -- -- 158 293 2 235 e 158 0.00 0
01/14/2015 487.81 181621 53 -- -- 158 186 1 234 e 158 0.00 0
01/15/2015 487.87 181779 158 -- -- 158 239 1 221 158 0.02 0
01/16/2015 488.16 182546 767 435500 -- 158 548 3 288 158 0.00 0
01/17/2015 488.09 182360 -186 435500 -- 164 72 2 214 164 0.00 0
01/18/2015 488.20 182652 292 435500 -- 168 316 1 209 168 0.00 0
01/19/2015 488.17 182572 -80 435500 -- 168 130 2 244 e 168 0.00 0
01/20/2015 488.39 183156 584 435500 -252344 168 463 1 244 e 168 0.00 0
01/21/2015 488.54 183555 399 435500 -251945 168 370 1 241 168 0.00 0
01/22/2015 488.50 183449 -106 435500 -252051 168 119 4 122 168 0.00 0
01/23/2015 488.60 183714 265 435500 -251786 168 303 1 231 168 0.00 0
01/24/2015 488.68 183926 212 435500 -251574 168 276 1 135 168 0.00 0
01/25/2015 488.92 184564 638 435500 -250936 162 487 3 312 162 0.00 0
01/26/2015 489.13 185124 560 435500 -250376 160 448 6 320 160 0.14 0
01/27/2015 489.34 185687 563 435500 -249813 160 444 0 319 160 0.05 0
01/28/2015 -- -- -- -- -- -- -- -- -- -- -- --

Later | Latest

Warning! This data is preliminary and subject to revision.

Show MIL Map | Plot MIL Data | 1 Month MIL Data | Real-Time MIL Data | MIL Info